N420HA SKRG-SEQM
Flight info
| Callsign | N420HA |
|---|---|
| Flight time | 1h 16m |
| Altitude | 32000 |
| Route | RNG2B RNG UP778 QIT |
| Aircraft | HDJT/L-SABDGRWY/H |
Departure
| Time | 2026-04-25 01:25 |
|---|---|
| Airport | Jose Maria Córdova International Airport (SKRG) |
Arrival
| Time | 2026-04-25 02:41 |
|---|---|
| Airport | Mariscal Sucre International Airport (SEQM) |
| Time | Latitude | Longitude | Altitude | Speed | Heading |
|---|---|---|---|---|---|
| 2026-04-25 00:59 | 6.17827 | -75.42681 | 6996 ft | 0 kts | 274° |
| 2026-04-25 01:14 | 6.17827 | -75.42683 | 6969 ft | 1 kts | 302° |
| 2026-04-25 01:14 | 6.17833 | -75.42682 | 6992 ft | 1 kts | 62° |
| 2026-04-25 01:14 | 6.17833 | -75.42681 | 6992 ft | 0 kts | 72° |
| 2026-04-25 01:15 | 6.17838 | -75.42648 | 6996 ft | 11 kts | 85° |
| 2026-04-25 01:15 | 6.17847 | -75.42584 | 6995 ft | 9 kts | 71° |
| 2026-04-25 01:15 | 6.17865 | -75.42521 | 6994 ft | 13 kts | 99° |
| 2026-04-25 01:16 | 6.17790 | -75.42493 | 6993 ft | 12 kts | 179° |
| 2026-04-25 01:16 | 6.17742 | -75.42492 | 6994 ft | 10 kts | 179° |
| 2026-04-25 01:16 | 6.17650 | -75.42491 | 6993 ft | 14 kts | 181° |
| 2026-04-25 01:16 | 6.17562 | -75.42490 | 6989 ft | 13 kts | 180° |
| 2026-04-25 01:17 | 6.17549 | -75.42490 | 6991 ft | 3 kts | 177° |
| 2026-04-25 01:17 | 6.17522 | -75.42488 | 6991 ft | 9 kts | 177° |
| 2026-04-25 01:17 | 6.17426 | -75.42488 | 6989 ft | 0 kts | 180° |
| 2026-04-25 01:17 | 6.17417 | -75.42488 | 6989 ft | 6 kts | 178° |
| 2026-04-25 01:18 | 6.17357 | -75.42489 | 6986 ft | 13 kts | 181° |
| 2026-04-25 01:18 | 6.17228 | -75.42488 | 6985 ft | 23 kts | 179° |
| 2026-04-25 01:18 | 6.17069 | -75.42486 | 6982 ft | 23 kts | 179° |
| 2026-04-25 01:18 | 6.16911 | -75.42486 | 6979 ft | 23 kts | 179° |
| 2026-04-25 01:19 | 6.16753 | -75.42485 | 6976 ft | 22 kts | 179° |
| 2026-04-25 01:19 | 6.16597 | -75.42482 | 6973 ft | 23 kts | 182° |
| 2026-04-25 01:19 | 6.16457 | -75.42483 | 6970 ft | 19 kts | 178° |
| 2026-04-25 01:19 | 6.16317 | -75.42481 | 6967 ft | 21 kts | 181° |
| 2026-04-25 01:20 | 6.16161 | -75.42480 | 6965 ft | 23 kts | 178° |
| 2026-04-25 01:20 | 6.15995 | -75.42480 | 6962 ft | 25 kts | 179° |
| 2026-04-25 01:20 | 6.15817 | -75.42480 | 6958 ft | 26 kts | 180° |
| 2026-04-25 01:20 | 6.15630 | -75.42477 | 6956 ft | 27 kts | 179° |
| 2026-04-25 01:21 | 6.15435 | -75.42476 | 6952 ft | 29 kts | 179° |
| 2026-04-25 01:21 | 6.15233 | -75.42472 | 6948 ft | 30 kts | 179° |
| 2026-04-25 01:21 | 6.15023 | -75.42470 | 6944 ft | 30 kts | 179° |
| 2026-04-25 01:21 | 6.14895 | -75.42449 | 6941 ft | 8 kts | 121° |
| 2026-04-25 01:22 | 6.14890 | -75.42422 | 6941 ft | 6 kts | 90° |
| 2026-04-25 01:22 | 6.14890 | -75.42414 | 6941 ft | 0 kts | 90° |
| 2026-04-25 01:22 | 6.14890 | -75.42413 | 6941 ft | 1 kts | 90° |
| 2026-04-25 01:23 | 6.14892 | -75.42366 | 6941 ft | 12 kts | 81° |
| 2026-04-25 01:23 | 6.14934 | -75.42319 | 6942 ft | 7 kts | 31° |
| 2026-04-25 01:23 | 6.14966 | -75.42300 | 6943 ft | 3 kts | 22° |
| 2026-04-25 01:23 | 6.14987 | -75.42296 | 6944 ft | 3 kts | 358° |
| 2026-04-25 01:24 | 6.14989 | -75.42296 | 6944 ft | 0 kts | 358° |
| 2026-04-25 01:24 | 6.15209 | -75.42298 | 6949 ft | 72 kts | 359° |
| 2026-04-25 01:24 | 6.15666 | -75.42303 | 6957 ft | 122 kts | 1° |
| 2026-04-25 01:25 | 6.16729 | -75.42311 | 7026 ft | 175 kts | 0° |
| 2026-04-25 01:25 | 6.18484 | -75.42302 | 7683 ft | 205 kts | 359° |
| 2026-04-25 01:25 | 6.19456 | -75.42305 | 8025 ft | 217 kts | 358° |
| 2026-04-25 01:25 | 6.21014 | -75.42285 | 8513 ft | 230 kts | 5° |
| 2026-04-25 01:26 | 6.22480 | -75.41679 | 8973 ft | 233 kts | 38° |
| 2026-04-25 01:26 | 6.23396 | -75.40338 | 9457 ft | 236 kts | 72° |
| 2026-04-25 01:26 | 6.23444 | -75.38694 | 9950 ft | 240 kts | 105° |
| 2026-04-25 01:26 | 6.22608 | -75.37261 | 10430 ft | 242 kts | 137° |
| 2026-04-25 01:27 | 6.21284 | -75.36220 | 10901 ft | 243 kts | 143° |
| 2026-04-25 01:27 | 6.19975 | -75.35098 | 11406 ft | 253 kts | 135° |
| 2026-04-25 01:27 | 6.18775 | -75.33743 | 11915 ft | 266 kts | 130° |
| 2026-04-25 01:28 | 6.16023 | -75.31183 | 12927 ft | 273 kts | 160° |
| 2026-04-25 01:28 | 6.14173 | -75.30883 | 13444 ft | 271 kts | 187° |
| 2026-04-25 01:28 | 6.12400 | -75.31463 | 13974 ft | 269 kts | 214° |
| 2026-04-25 01:28 | 6.11127 | -75.32771 | 14457 ft | 268 kts | 241° |
| 2026-04-25 01:29 | 6.10478 | -75.34557 | 14946 ft | 270 kts | 252° |
| 2026-04-25 01:29 | 6.09556 | -75.36165 | 15465 ft | 274 kts | 225° |
| 2026-04-25 01:29 | 6.07958 | -75.37232 | 15988 ft | 280 kts | 206° |
| 2026-04-25 01:29 | 6.06140 | -75.37976 | 16500 ft | 284 kts | 202° |
| 2026-04-25 01:30 | 6.04300 | -75.38714 | 17006 ft | 287 kts | 205° |
| 2026-04-25 01:30 | 6.02495 | -75.39609 | 17526 ft | 289 kts | 209° |
| 2026-04-25 01:30 | 6.00710 | -75.40556 | 18056 ft | 292 kts | 208° |
| 2026-04-25 01:30 | 5.98866 | -75.41477 | 18594 ft | 296 kts | 206° |
| 2026-04-25 01:31 | 5.96994 | -75.42293 | 19052 ft | 299 kts | 202° |
| 2026-04-25 01:31 | 5.95045 | -75.43024 | 19524 ft | 302 kts | 201° |
| 2026-04-25 01:31 | 5.93057 | -75.43750 | 19999 ft | 304 kts | 201° |
| 2026-04-25 01:31 | 5.91070 | -75.44502 | 20478 ft | 307 kts | 202° |
| 2026-04-25 01:32 | 5.89060 | -75.45286 | 20961 ft | 311 kts | 203° |
| 2026-04-25 01:32 | 5.87024 | -75.46082 | 21462 ft | 316 kts | 202° |
| 2026-04-25 01:32 | 5.84953 | -75.46878 | 21967 ft | 320 kts | 202° |
| 2026-04-25 01:32 | 5.82856 | -75.47676 | 22480 ft | 324 kts | 202° |
| 2026-04-25 01:33 | 5.80745 | -75.48483 | 23002 ft | 328 kts | 202° |
| 2026-04-25 01:33 | 5.78584 | -75.49316 | 23546 ft | 332 kts | 202° |
| 2026-04-25 01:33 | 5.76460 | -75.50137 | 24017 ft | 335 kts | 202° |
| 2026-04-25 01:33 | 5.74260 | -75.50984 | 24481 ft | 338 kts | 202° |
| 2026-04-25 01:34 | 5.72051 | -75.51833 | 24944 ft | 340 kts | 201° |
| 2026-04-25 01:34 | 5.69841 | -75.52683 | 25415 ft | 341 kts | 201° |
| 2026-04-25 01:34 | 5.67622 | -75.53535 | 25895 ft | 342 kts | 201° |
| 2026-04-25 01:34 | 5.65395 | -75.54391 | 26381 ft | 343 kts | 201° |
| 2026-04-25 01:35 | 5.63172 | -75.55248 | 26877 ft | 344 kts | 200° |
| 2026-04-25 01:35 | 5.60927 | -75.56113 | 27385 ft | 344 kts | 199° |
| 2026-04-25 01:35 | 5.58699 | -75.56968 | 27907 ft | 343 kts | 199° |
| 2026-04-25 01:35 | 5.56466 | -75.57822 | 28433 ft | 342 kts | 199° |
| 2026-04-25 01:36 | 5.54243 | -75.58675 | 28967 ft | 341 kts | 199° |
| 2026-04-25 01:36 | 5.52036 | -75.59525 | 29510 ft | 340 kts | 198° |
| 2026-04-25 01:36 | 5.49848 | -75.60367 | 30061 ft | 338 kts | 198° |
| 2026-04-25 01:36 | 5.47659 | -75.61206 | 30301 ft | 346 kts | 198° |
| 2026-04-25 01:37 | 5.45358 | -75.62081 | 30193 ft | 362 kts | 198° |
| 2026-04-25 01:37 | 5.42963 | -75.62995 | 30190 ft | 373 kts | 199° |
| 2026-04-25 01:37 | 5.38002 | -75.64910 | 30165 ft | 390 kts | 199° |
| 2026-04-25 01:38 | 5.32868 | -75.66878 | 30168 ft | 400 kts | 199° |
| 2026-04-25 01:38 | 5.27664 | -75.68874 | 30180 ft | 400 kts | 199° |
| 2026-04-25 01:39 | 5.22456 | -75.70877 | 30192 ft | 400 kts | 199° |
| 2026-04-25 01:39 | 5.17291 | -75.72853 | 30198 ft | 400 kts | 199° |
| 2026-04-25 01:40 | 5.12093 | -75.74853 | 30260 ft | 399 kts | 198° |
| 2026-04-25 01:40 | 5.09542 | -75.75834 | 30535 ft | 396 kts | 198° |
| 2026-04-25 01:40 | 5.06982 | -75.76814 | 30803 ft | 393 kts | 198° |
| 2026-04-25 01:41 | 5.04437 | -75.77787 | 31083 ft | 390 kts | 198° |
| 2026-04-25 01:41 | 5.01902 | -75.78757 | 31193 ft | 392 kts | 198° |
| 2026-04-25 01:41 | 4.96728 | -75.80739 | 31177 ft | 402 kts | 198° |
| 2026-04-25 01:42 | 4.91466 | -75.82758 | 31130 ft | 406 kts | 198° |
| 2026-04-25 01:42 | 4.86197 | -75.84778 | 31124 ft | 409 kts | 198° |
| 2026-04-25 01:43 | 4.80847 | -75.86825 | 31127 ft | 413 kts | 198° |
| 2026-04-25 01:43 | 4.75489 | -75.88881 | 31129 ft | 416 kts | 198° |
| 2026-04-25 01:44 | 4.70022 | -75.90973 | 31114 ft | 418 kts | 198° |
| 2026-04-25 01:44 | 4.64578 | -75.93056 | 31097 ft | 420 kts | 198° |
| 2026-04-25 01:45 | 4.59149 | -75.95138 | 31056 ft | 420 kts | 198° |
| 2026-04-25 01:45 | 4.53677 | -75.97231 | 31049 ft | 421 kts | 198° |
| 2026-04-25 01:46 | 4.48192 | -75.99331 | 31048 ft | 421 kts | 198° |
| 2026-04-25 01:46 | 4.42712 | -76.01431 | 31064 ft | 421 kts | 198° |
| 2026-04-25 01:47 | 4.37268 | -76.03509 | 31067 ft | 422 kts | 198° |
| 2026-04-25 01:47 | 4.31732 | -76.05631 | 31066 ft | 423 kts | 198° |
| 2026-04-25 01:48 | 4.26294 | -76.07711 | 31073 ft | 423 kts | 198° |
| 2026-04-25 01:48 | 4.20767 | -76.09821 | 31072 ft | 423 kts | 198° |
| 2026-04-25 01:49 | 4.15309 | -76.11913 | 31075 ft | 423 kts | 198° |
| 2026-04-25 01:49 | 4.09804 | -76.14016 | 31100 ft | 423 kts | 198° |
| 2026-04-25 01:50 | 4.04335 | -76.16104 | 31095 ft | 422 kts | 198° |
| 2026-04-25 01:50 | 3.98897 | -76.18188 | 31110 ft | 423 kts | 198° |
| 2026-04-25 01:51 | 3.93358 | -76.20300 | 31111 ft | 422 kts | 198° |
| 2026-04-25 01:51 | 3.87860 | -76.22402 | 31083 ft | 423 kts | 198° |
| 2026-04-25 01:52 | 3.82364 | -76.24506 | 31083 ft | 423 kts | 198° |
| 2026-04-25 01:52 | 3.76868 | -76.26600 | 31072 ft | 422 kts | 198° |
| 2026-04-25 01:53 | 3.71414 | -76.28686 | 31063 ft | 422 kts | 198° |
| 2026-04-25 01:53 | 3.65920 | -76.30788 | 31057 ft | 423 kts | 198° |
| 2026-04-25 01:54 | 3.60417 | -76.32884 | 31052 ft | 423 kts | 198° |
| 2026-04-25 01:54 | 3.54922 | -76.34984 | 31052 ft | 423 kts | 198° |
| 2026-04-25 01:55 | 3.49406 | -76.37093 | 31062 ft | 423 kts | 198° |
| 2026-04-25 01:55 | 3.43895 | -76.39191 | 31062 ft | 423 kts | 198° |
| 2026-04-25 01:56 | 3.38456 | -76.41466 | 31062 ft | 426 kts | 204° |
| 2026-04-25 01:56 | 3.33325 | -76.44484 | 31063 ft | 428 kts | 208° |
| 2026-04-25 01:57 | 3.25614 | -76.48881 | 31070 ft | 427 kts | 205° |
| 2026-04-25 01:58 | 3.20442 | -76.51817 | 31061 ft | 427 kts | 207° |
| 2026-04-25 01:58 | 3.15339 | -76.54778 | 31062 ft | 427 kts | 206° |
| 2026-04-25 01:59 | 3.10151 | -76.57685 | 31073 ft | 427 kts | 206° |
| 2026-04-25 01:59 | 3.05008 | -76.60634 | 31073 ft | 427 kts | 207° |
| 2026-04-25 02:00 | 2.99870 | -76.63567 | 31076 ft | 427 kts | 206° |
| 2026-04-25 02:00 | 2.94703 | -76.66489 | 31072 ft | 427 kts | 206° |
| 2026-04-25 02:01 | 2.89557 | -76.69435 | 31075 ft | 428 kts | 207° |
| 2026-04-25 02:01 | 2.84368 | -76.72385 | 31076 ft | 428 kts | 207° |
| 2026-04-25 02:02 | 2.79206 | -76.75318 | 31079 ft | 429 kts | 207° |
| 2026-04-25 02:02 | 2.74050 | -76.78263 | 31092 ft | 429 kts | 206° |
| 2026-04-25 02:03 | 2.68848 | -76.81218 | 31085 ft | 429 kts | 206° |
| 2026-04-25 02:03 | 2.63740 | -76.84125 | 31102 ft | 429 kts | 207° |
| 2026-04-25 02:04 | 2.58545 | -76.87084 | 31101 ft | 429 kts | 206° |
| 2026-04-25 02:04 | 2.53357 | -76.90033 | 31070 ft | 429 kts | 206° |
| 2026-04-25 02:05 | 2.48159 | -76.92989 | 31076 ft | 429 kts | 206° |
| 2026-04-25 02:05 | 2.43096 | -76.95872 | 31066 ft | 429 kts | 206° |
| 2026-04-25 02:06 | 2.37885 | -76.98833 | 31069 ft | 429 kts | 206° |
| 2026-04-25 02:06 | 2.32779 | -77.01737 | 31069 ft | 430 kts | 206° |
| 2026-04-25 02:07 | 2.27600 | -77.04686 | 31068 ft | 429 kts | 206° |
| 2026-04-25 02:07 | 2.22385 | -77.07648 | 31070 ft | 430 kts | 206° |
| 2026-04-25 02:08 | 2.17168 | -77.10614 | 31062 ft | 431 kts | 206° |
| 2026-04-25 02:08 | 2.11977 | -77.13570 | 31063 ft | 432 kts | 206° |
| 2026-04-25 02:09 | 2.07592 | -77.16058 | 31055 ft | 432 kts | 206° |
| 2026-04-25 02:09 | 2.01508 | -77.19518 | 31055 ft | 432 kts | 206° |
| 2026-04-25 02:10 | 1.96282 | -77.22492 | 31055 ft | 432 kts | 206° |
| 2026-04-25 02:10 | 1.91941 | -77.24957 | 31056 ft | 431 kts | 206° |
| 2026-04-25 02:11 | 1.86721 | -77.27926 | 31058 ft | 431 kts | 206° |
| 2026-04-25 02:11 | 1.81492 | -77.30894 | 31052 ft | 432 kts | 206° |
| 2026-04-25 02:12 | 1.76264 | -77.33866 | 31074 ft | 433 kts | 206° |
| 2026-04-25 02:12 | 1.71019 | -77.36849 | 31074 ft | 433 kts | 206° |
| 2026-04-25 02:13 | 1.65786 | -77.39819 | 31066 ft | 433 kts | 206° |
| 2026-04-25 02:13 | 1.60550 | -77.42795 | 31100 ft | 432 kts | 206° |
| 2026-04-25 02:14 | 1.55327 | -77.45764 | 31095 ft | 433 kts | 206° |
| 2026-04-25 02:14 | 1.50093 | -77.48735 | 31094 ft | 433 kts | 206° |
| 2026-04-25 02:15 | 1.44874 | -77.51700 | 31136 ft | 433 kts | 206° |
| 2026-04-25 02:15 | 1.39625 | -77.54684 | 31164 ft | 434 kts | 206° |
| 2026-04-25 02:16 | 1.34404 | -77.57649 | 31154 ft | 434 kts | 206° |
| 2026-04-25 02:16 | 1.29164 | -77.60625 | 31169 ft | 434 kts | 206° |
| 2026-04-25 02:17 | 1.23986 | -77.63566 | 31166 ft | 433 kts | 206° |
| 2026-04-25 02:17 | 1.18789 | -77.66518 | 31245 ft | 433 kts | 206° |
| 2026-04-25 02:18 | 1.13562 | -77.69486 | 31277 ft | 434 kts | 206° |
| 2026-04-25 02:18 | 1.08306 | -77.72470 | 31318 ft | 434 kts | 206° |
| 2026-04-25 02:19 | 1.03051 | -77.75455 | 31351 ft | 435 kts | 206° |
| 2026-04-25 02:19 | 1.00400 | -77.76958 | 31025 ft | 442 kts | 206° |
| 2026-04-25 02:19 | 0.97710 | -77.78483 | 30687 ft | 445 kts | 206° |
| 2026-04-25 02:19 | 0.95023 | -77.80012 | 30334 ft | 445 kts | 206° |
| 2026-04-25 02:20 | 0.92341 | -77.81538 | 29753 ft | 442 kts | 207° |
| 2026-04-25 02:20 | 0.89672 | -77.83054 | 29358 ft | 439 kts | 207° |
| 2026-04-25 02:20 | 0.87024 | -77.84553 | 29000 ft | 436 kts | 207° |
| 2026-04-25 02:20 | 0.84400 | -77.86039 | 28619 ft | 434 kts | 207° |
| 2026-04-25 02:21 | 0.81786 | -77.87524 | 28239 ft | 431 kts | 207° |
| 2026-04-25 02:21 | 0.79280 | -77.89143 | 27867 ft | 431 kts | 214° |
| 2026-04-25 02:21 | 0.76882 | -77.90957 | 27496 ft | 429 kts | 216° |
| 2026-04-25 02:21 | 0.74573 | -77.92783 | 27156 ft | 426 kts | 216° |
| 2026-04-25 02:22 | 0.72246 | -77.94560 | 26799 ft | 417 kts | 215° |
| 2026-04-25 02:22 | 0.69907 | -77.96253 | 26431 ft | 413 kts | 214° |
| 2026-04-25 02:22 | 0.67611 | -77.97896 | 26086 ft | 411 kts | 215° |
| 2026-04-25 02:22 | 0.65312 | -77.99589 | 25746 ft | 409 kts | 216° |
| 2026-04-25 02:23 | 0.63058 | -78.01298 | 25396 ft | 407 kts | 217° |
| 2026-04-25 02:23 | 0.60801 | -78.03010 | 25266 ft | 404 kts | 216° |
| 2026-04-25 02:23 | 0.58591 | -78.04657 | 25299 ft | 405 kts | 216° |
| 2026-04-25 02:23 | 0.56317 | -78.06329 | 25299 ft | 405 kts | 216° |
| 2026-04-25 02:24 | 0.54087 | -78.07975 | 25297 ft | 405 kts | 216° |
| 2026-04-25 02:24 | 0.51795 | -78.09687 | 25292 ft | 405 kts | 216° |
| 2026-04-25 02:24 | 0.49544 | -78.11377 | 25281 ft | 405 kts | 216° |
| 2026-04-25 02:24 | 0.47289 | -78.13063 | 25232 ft | 405 kts | 216° |
| 2026-04-25 02:25 | 0.45030 | -78.14739 | 24896 ft | 403 kts | 216° |
| 2026-04-25 02:25 | 0.42779 | -78.16403 | 24587 ft | 400 kts | 216° |
| 2026-04-25 02:25 | 0.40615 | -78.18010 | 24273 ft | 398 kts | 217° |
| 2026-04-25 02:25 | 0.38427 | -78.19643 | 23951 ft | 396 kts | 217° |
| 2026-04-25 02:26 | 0.36241 | -78.21278 | 23588 ft | 395 kts | 217° |
| 2026-04-25 02:26 | 0.34060 | -78.22906 | 23199 ft | 392 kts | 217° |
| 2026-04-25 02:26 | 0.31893 | -78.24519 | 22820 ft | 389 kts | 217° |
| 2026-04-25 02:26 | 0.29728 | -78.26126 | 22445 ft | 386 kts | 217° |
| 2026-04-25 02:27 | 0.27580 | -78.27721 | 22083 ft | 383 kts | 217° |
| 2026-04-25 02:27 | 0.25452 | -78.29308 | 21706 ft | 380 kts | 217° |
| 2026-04-25 02:27 | 0.23343 | -78.30882 | 21347 ft | 377 kts | 217° |
| 2026-04-25 02:27 | 0.21234 | -78.32454 | 20985 ft | 375 kts | 217° |
| 2026-04-25 02:28 | 0.19200 | -78.33966 | 20636 ft | 366 kts | 217° |
| 2026-04-25 02:28 | 0.17140 | -78.35497 | 20282 ft | 362 kts | 217° |
| 2026-04-25 02:28 | 0.15146 | -78.36981 | 19940 ft | 360 kts | 217° |
| 2026-04-25 02:28 | 0.13141 | -78.38474 | 19625 ft | 358 kts | 217° |
| 2026-04-25 02:29 | 0.11202 | -78.39920 | 19255 ft | 355 kts | 217° |
| 2026-04-25 02:29 | 0.09206 | -78.41406 | 18914 ft | 353 kts | 217° |
| 2026-04-25 02:29 | 0.07289 | -78.42833 | 18591 ft | 350 kts | 217° |
| 2026-04-25 02:29 | 0.05239 | -78.44225 | 18304 ft | 348 kts | 208° |
| 2026-04-25 02:30 | 0.03087 | -78.45284 | 18305 ft | 348 kts | 213° |
| 2026-04-25 02:30 | 0.01198 | -78.46806 | 18310 ft | 348 kts | 224° |
| 2026-04-25 02:30 | -0.00508 | -78.48513 | 18390 ft | 348 kts | 224° |
| 2026-04-25 02:30 | -0.02502 | -78.49818 | 18393 ft | 351 kts | 203° |
| 2026-04-25 02:31 | -0.04873 | -78.50548 | 18392 ft | 352 kts | 192° |
| 2026-04-25 02:31 | -0.07294 | -78.50769 | 18343 ft | 353 kts | 179° |
| 2026-04-25 02:31 | -0.09734 | -78.50519 | 18226 ft | 352 kts | 172° |
| 2026-04-25 02:31 | -0.12157 | -78.50163 | 18099 ft | 351 kts | 173° |
| 2026-04-25 02:32 | -0.14581 | -78.49935 | 18022 ft | 350 kts | 177° |
| 2026-04-25 02:32 | -0.17019 | -78.49846 | 17998 ft | 351 kts | 178° |
| 2026-04-25 02:32 | -0.19452 | -78.49720 | 17731 ft | 350 kts | 176° |
| 2026-04-25 02:32 | -0.21841 | -78.49508 | 17389 ft | 347 kts | 174° |
| 2026-04-25 02:33 | -0.24233 | -78.49261 | 17026 ft | 344 kts | 174° |
| 2026-04-25 02:33 | -0.26607 | -78.49045 | 16699 ft | 335 kts | 175° |
| 2026-04-25 02:33 | -0.28874 | -78.48878 | 16427 ft | 318 kts | 176° |
| 2026-04-25 02:33 | -0.31058 | -78.48726 | 16156 ft | 311 kts | 176° |
| 2026-04-25 02:34 | -0.33159 | -78.48565 | 15854 ft | 294 kts | 175° |
| 2026-04-25 02:34 | -0.35118 | -78.48370 | 15568 ft | 282 kts | 169° |
| 2026-04-25 02:34 | -0.36965 | -78.47740 | 15271 ft | 272 kts | 153° |
| 2026-04-25 02:34 | -0.38576 | -78.46787 | 14963 ft | 268 kts | 145° |
| 2026-04-25 02:35 | -0.40062 | -78.45655 | 14645 ft | 268 kts | 138° |
| 2026-04-25 02:35 | -0.41383 | -78.44351 | 14328 ft | 266 kts | 131° |
| 2026-04-25 02:35 | -0.42420 | -78.42843 | 13999 ft | 263 kts | 110° |
| 2026-04-25 02:35 | -0.42647 | -78.41071 | 13686 ft | 262 kts | 82° |
| 2026-04-25 02:36 | -0.42019 | -78.39375 | 13398 ft | 261 kts | 54° |
| 2026-04-25 02:36 | -0.40675 | -78.38180 | 13093 ft | 259 kts | 26° |
| 2026-04-25 02:36 | -0.38997 | -78.37570 | 12773 ft | 253 kts | 16° |
| 2026-04-25 02:36 | -0.37324 | -78.37079 | 12450 ft | 247 kts | 17° |
| 2026-04-25 02:37 | -0.35709 | -78.36554 | 12151 ft | 243 kts | 18° |
| 2026-04-25 02:37 | -0.34128 | -78.36003 | 11856 ft | 242 kts | 19° |
| 2026-04-25 02:37 | -0.32528 | -78.35456 | 11574 ft | 242 kts | 18° |
| 2026-04-25 02:37 | -0.30950 | -78.34938 | 11290 ft | 241 kts | 17° |
| 2026-04-25 02:38 | -0.29308 | -78.34684 | 11043 ft | 239 kts | 359° |
| 2026-04-25 02:38 | -0.27628 | -78.34784 | 10760 ft | 245 kts | 355° |
| 2026-04-25 02:38 | -0.25903 | -78.34902 | 10442 ft | 252 kts | 356° |
| 2026-04-25 02:38 | -0.24162 | -78.34974 | 10100 ft | 248 kts | 358° |
| 2026-04-25 02:39 | -0.22509 | -78.35022 | 9754 ft | 226 kts | 358° |
| 2026-04-25 02:39 | -0.21008 | -78.35068 | 9450 ft | 203 kts | 356° |
| 2026-04-25 02:39 | -0.19688 | -78.35127 | 9176 ft | 179 kts | 356° |
| 2026-04-25 02:39 | -0.18508 | -78.35193 | 8908 ft | 164 kts | 356° |
| 2026-04-25 02:40 | -0.17402 | -78.35273 | 8655 ft | 153 kts | 359° |
| 2026-04-25 02:40 | -0.16402 | -78.35293 | 8436 ft | 138 kts | 359° |
| 2026-04-25 02:40 | -0.15480 | -78.35319 | 8257 ft | 125 kts | 358° |
| 2026-04-25 02:40 | -0.14648 | -78.35364 | 8086 ft | 117 kts | 1° |
| 2026-04-25 02:41 | -0.13870 | -78.35395 | 7915 ft | 105 kts | 3° |
| 2026-04-25 02:41 | -0.13214 | -78.35415 | 7878 ft | 85 kts | 356° |
| 2026-04-25 02:41 | -0.12787 | -78.35433 | 7862 ft | 56 kts | 357° |
| 2026-04-25 02:41 | -0.12482 | -78.35519 | 7841 ft | 37 kts | 329° |
| 2026-04-25 02:42 | -0.12422 | -78.35570 | 7841 ft | 0 kts | 280° |
| 2026-04-25 02:42 | -0.12421 | -78.35574 | 7841 ft | 3 kts | 274° |
| 2026-04-25 02:42 | -0.12443 | -78.35606 | 7840 ft | 7 kts | 194° |
| 2026-04-25 02:43 | -0.12451 | -78.35607 | 7842 ft | 2 kts | 190° |
| 2026-04-25 02:43 | -0.12459 | -78.35609 | 7842 ft | 0 kts | 188° |
| 2026-04-25 02:43 | -0.12461 | -78.35609 | 7842 ft | 3 kts | 186° |
| 2026-04-25 02:43 | -0.12532 | -78.35609 | 7844 ft | 15 kts | 179° |
| 2026-04-25 02:44 | -0.12633 | -78.35604 | 7852 ft | 17 kts | 181° |
| 2026-04-25 02:44 | -0.12721 | -78.35678 | 7850 ft | 18 kts | 198° |
| 2026-04-25 02:44 | -0.12832 | -78.35678 | 7859 ft | 15 kts | 176° |
| 2026-04-25 02:44 | -0.12928 | -78.35672 | 7864 ft | 13 kts | 178° |
| 2026-04-25 02:45 | -0.13020 | -78.35671 | 7867 ft | 13 kts | 179° |
| 2026-04-25 02:45 | -0.13109 | -78.35667 | 7870 ft | 13 kts | 178° |
| 2026-04-25 02:45 | -0.13199 | -78.35663 | 7873 ft | 13 kts | 173° |
| 2026-04-25 02:45 | -0.13287 | -78.35659 | 7876 ft | 13 kts | 177° |
| 2026-04-25 02:46 | -0.13374 | -78.35656 | 7879 ft | 13 kts | 177° |
| 2026-04-25 02:46 | -0.13486 | -78.35650 | 7882 ft | 22 kts | 175° |
| 2026-04-25 02:46 | -0.13612 | -78.35630 | 7886 ft | 0 kts | 178° |
| 2026-04-25 02:46 | -0.13648 | -78.35645 | 7887 ft | 12 kts | 241° |
| 2026-04-25 02:47 | -0.13686 | -78.35693 | 7887 ft | 8 kts | 183° |
| 2026-04-25 02:47 | -0.13697 | -78.35693 | 7888 ft | 0 kts | 174° |
| 2026-04-25 02:47 | -0.13709 | -78.35695 | 7888 ft | 1 kts | 242° |
| 2026-04-25 02:48 | -0.13710 | -78.35713 | 7888 ft | 0 kts | 265° |